< < Back
Terminal Aerodrome Forecast


Current Version              Previous Versions:   1  2  3  4  5  6  7  8  9  

Terminal Aerodrome Forecast

440
FTUS44 KMRX 021720
TAFCHA
TAF
KCHA 021720Z 0218/0318 35004KT P6SM SCT040 BKN200
     FM031500 02005KT P6SM BKN250=



Latest METAR

717
SAUS80 KWBC 030700
MTRCHA
METAR KCHA 030653Z AUTO 00000KT 9SM CLR 24/22 A3000 RMK AO2 SLP148
T02390222


USA.gov is the U.S. government's official web portal to all federal, state and local government web resources and services.